createdAt,value
2022-12-03T00:01:32.357Z,2.80
2022-12-03T00:04:00.504Z,2.80
2022-12-03T00:06:34.631Z,2.80
2022-12-03T00:09:03.028Z,2.80
2022-12-03T00:11:32.554Z,2.70
2022-12-03T00:14:00.622Z,2.70
2022-12-03T00:16:28.712Z,2.70
2022-12-03T00:18:56.811Z,2.70
2022-12-03T00:21:25.067Z,2.70
2022-12-03T00:23:53.267Z,2.80
2022-12-03T00:26:21.453Z,2.80
2022-12-03T00:28:50.765Z,2.80
2022-12-03T00:31:21.418Z,2.90
2022-12-03T00:33:49.548Z,2.80
2022-12-03T00:36:17.850Z,2.90
2022-12-03T00:38:46.071Z,2.90
2022-12-03T00:41:14.173Z,2.90
2022-12-03T00:43:42.578Z,2.90
2022-12-03T00:46:14.753Z,2.90
2022-12-03T00:48:44.936Z,2.90
2022-12-03T00:51:13.345Z,2.90
2022-12-03T00:53:41.358Z,2.80
2022-12-03T00:56:09.771Z,2.80
2022-12-03T00:58:37.765Z,2.80
2022-12-03T01:01:05.926Z,2.80
2022-12-03T01:03:35.328Z,2.80
2022-12-03T01:06:03.368Z,2.80
2022-12-03T01:08:31.348Z,2.70
2022-12-03T01:10:59.360Z,2.70
2022-12-03T01:13:27.371Z,2.70
2022-12-03T01:15:55.495Z,2.70
2022-12-03T01:18:23.470Z,2.60
2022-12-03T01:20:52.872Z,2.60
2022-12-03T01:23:20.835Z,2.60
2022-12-03T01:25:48.836Z,2.70
2022-12-03T01:28:16.916Z,2.70
2022-12-03T01:30:58.914Z,2.80
2022-12-03T01:33:26.903Z,2.70
2022-12-03T01:35:56.283Z,2.90
2022-12-03T01:38:24.267Z,2.70
2022-12-03T01:40:54.848Z,2.80
2022-12-03T01:43:22.966Z,2.70
2022-12-03T01:45:51.009Z,2.80
2022-12-03T01:48:19.188Z,2.70
2022-12-03T01:50:47.547Z,2.80
2022-12-03T01:53:18.312Z,2.90
2022-12-03T01:55:48.816Z,2.90
2022-12-03T01:58:17.947Z,2.90
2022-12-03T02:00:45.965Z,2.80
2022-12-03T02:03:19.588Z,2.90
2022-12-03T02:05:47.670Z,2.90
2022-12-03T02:08:31.271Z,2.90
2022-12-03T02:11:01.519Z,3.00
2022-12-03T02:13:29.810Z,2.90
2022-12-03T02:15:58.025Z,2.80
2022-12-03T02:18:26.206Z,2.80
2022-12-03T02:21:01.485Z,2.80
2022-12-03T02:23:36.408Z,2.80
2022-12-03T02:26:05.819Z,2.80
2022-12-03T02:28:34.194Z,2.90
2022-12-03T02:31:02.293Z,2.90
2022-12-03T02:33:30.440Z,2.90
2022-12-03T02:36:03.291Z,2.90
2022-12-03T02:38:33.539Z,2.90
2022-12-03T02:41:06.987Z,2.90
2022-12-03T02:43:33.990Z,2.90
2022-12-03T02:46:03.545Z,2.90
2022-12-03T02:48:35.661Z,3.00
2022-12-03T02:51:06.093Z,3.00
2022-12-03T02:53:38.919Z,2.90
2022-12-03T02:56:09.640Z,2.90
2022-12-03T02:58:38.142Z,3.00
2022-12-03T03:01:06.889Z,2.90
2022-12-03T03:03:35.257Z,2.90
2022-12-03T03:06:04.280Z,2.80
2022-12-03T03:08:32.873Z,2.90
2022-12-03T03:11:01.769Z,3.00
2022-12-03T03:13:31.948Z,3.00
2022-12-03T03:16:00.429Z,3.00
2022-12-03T03:18:28.489Z,3.00
2022-12-03T03:20:56.574Z,2.90
2022-12-03T03:23:25.516Z,3.00
2022-12-03T03:25:58.455Z,2.80
2022-12-03T03:28:27.334Z,2.90
2022-12-03T03:30:57.651Z,2.90
2022-12-03T03:33:25.865Z,2.90
2022-12-03T03:35:54.488Z,2.90
2022-12-03T03:38:24.903Z,2.90
2022-12-03T03:40:53.913Z,2.90
2022-12-03T03:43:23.136Z,2.80
2022-12-03T03:45:52.403Z,2.80
2022-12-03T03:48:22.628Z,2.80
2022-12-03T03:50:51.842Z,2.90
2022-12-03T03:53:20.355Z,2.90
2022-12-03T03:55:48.516Z,2.90
2022-12-03T03:58:16.535Z,2.90
2022-12-03T04:00:44.988Z,3.00
2022-12-03T04:03:14.061Z,3.00
2022-12-03T04:05:43.495Z,3.00
2022-12-03T04:08:11.561Z,3.00
2022-12-03T04:10:56.928Z,2.90
2022-12-03T04:13:24.909Z,2.90
2022-12-03T04:15:52.914Z,2.90
2022-12-03T04:18:38.501Z,2.90
2022-12-03T04:21:25.653Z,2.80
2022-12-03T04:23:53.771Z,2.80
2022-12-03T04:26:39.454Z,2.70
2022-12-03T04:29:07.522Z,2.70
2022-12-03T04:31:52.884Z,2.70
2022-12-03T04:34:38.634Z,2.70
2022-12-03T04:37:08.338Z,2.70
2022-12-03T04:39:36.666Z,2.60
2022-12-03T04:42:05.784Z,2.60
2022-12-03T04:44:39.867Z,2.50
2022-12-03T04:47:12.814Z,2.50
2022-12-03T04:49:42.754Z,2.60
2022-12-03T04:52:13.535Z,2.60
2022-12-03T04:54:42.546Z,2.60
2022-12-03T04:57:10.990Z,2.60
2022-12-03T04:59:40.205Z,2.60
2022-12-03T05:02:08.470Z,2.60
2022-12-03T05:04:36.737Z,2.60
2022-12-03T05:07:04.768Z,2.60
2022-12-03T05:09:34.278Z,2.70
2022-12-03T05:12:02.315Z,2.70
2022-12-03T05:14:30.296Z,2.70
2022-12-03T05:16:58.351Z,2.70
2022-12-03T05:19:46.374Z,2.60
2022-12-03T05:22:13.359Z,2.70
2022-12-03T05:24:42.762Z,2.60
2022-12-03T05:27:10.891Z,2.60
2022-12-03T05:29:38.902Z,2.60
2022-12-03T05:32:07.196Z,2.60
2022-12-03T05:34:35.214Z,2.60
2022-12-03T05:37:03.314Z,2.60
2022-12-03T05:39:31.351Z,2.50
2022-12-03T05:42:18.146Z,2.50
2022-12-03T05:44:46.443Z,2.60
2022-12-03T05:47:14.546Z,2.60
2022-12-03T05:49:42.911Z,2.60
2022-12-03T05:52:11.476Z,2.60
2022-12-03T05:54:39.766Z,2.60
2022-12-03T05:57:09.139Z,2.50
2022-12-03T05:59:37.203Z,2.50
2022-12-03T06:02:05.479Z,2.50
2022-12-03T06:04:33.561Z,2.60
2022-12-03T06:07:01.693Z,2.60
2022-12-03T06:09:29.711Z,2.60
2022-12-03T06:11:57.766Z,2.60
2022-12-03T06:14:27.160Z,2.60
2022-12-03T06:16:55.285Z,2.70
2022-12-03T06:19:23.647Z,2.50
2022-12-03T06:21:51.681Z,2.50
2022-12-03T06:24:19.696Z,2.50
2022-12-03T06:26:47.744Z,2.60
2022-12-03T06:29:15.860Z,2.60
2022-12-03T06:31:45.383Z,2.60
2022-12-03T06:34:13.521Z,2.60
2022-12-03T06:36:41.675Z,2.60
2022-12-03T06:39:09.767Z,2.60
2022-12-03T06:41:37.916Z,2.60
2022-12-03T06:44:06.243Z,2.60
2022-12-03T06:46:34.236Z,2.60
2022-12-03T06:49:45.816Z,2.60
2022-12-03T06:52:15.386Z,2.60
2022-12-03T06:54:43.659Z,2.60
2022-12-03T06:57:11.720Z,2.60
2022-12-03T06:59:39.790Z,2.60
2022-12-03T07:02:08.371Z,2.60
2022-12-03T07:04:36.414Z,2.70
2022-12-03T07:07:04.444Z,2.60
2022-12-03T07:09:33.835Z,2.70
2022-12-03T07:12:01.919Z,2.80
2022-12-03T07:14:30.156Z,2.80
2022-12-03T07:16:58.379Z,2.80
2022-12-03T07:19:32.272Z,2.80
2022-12-03T07:22:01.203Z,2.90
2022-12-03T07:24:29.582Z,2.80
2022-12-03T07:26:59.153Z,2.90
2022-12-03T07:29:27.218Z,2.90
2022-12-03T07:31:55.538Z,2.90
2022-12-03T07:34:23.714Z,2.90
2022-12-03T07:36:52.510Z,2.90
2022-12-03T07:39:20.702Z,2.90
2022-12-03T07:41:48.835Z,2.90
2022-12-03T07:44:18.392Z,3.00
2022-12-03T07:46:46.421Z,3.00
2022-12-03T07:49:14.442Z,3.00
2022-12-03T07:51:42.955Z,3.10
2022-12-03T07:54:10.891Z,3.10
2022-12-03T07:56:38.996Z,3.10
2022-12-03T07:59:06.910Z,3.20
2022-12-03T08:01:36.515Z,3.20
2022-12-03T08:04:04.607Z,3.20
2022-12-03T08:06:32.620Z,3.30
2022-12-03T08:09:00.654Z,3.20
2022-12-03T08:11:30.318Z,3.20
2022-12-03T08:13:59.521Z,3.10
2022-12-03T08:16:31.538Z,3.10
2022-12-03T08:19:03.032Z,3.20
2022-12-03T08:21:59.688Z,3.20
2022-12-03T08:24:32.575Z,3.20
2022-12-03T08:27:01.711Z,3.30
2022-12-03T08:30:00.337Z,3.20
2022-12-03T08:32:58.973Z,3.10
2022-12-03T08:35:32.213Z,3.10
2022-12-03T08:38:38.600Z,3.20
2022-12-03T08:42:02.174Z,3.20
2022-12-03T08:44:38.540Z,3.20
2022-12-03T08:47:14.903Z,3.20
2022-12-03T08:49:43.383Z,3.20
2022-12-03T08:52:17.722Z,3.10
2022-12-03T08:54:52.558Z,3.10
2022-12-03T08:57:28.772Z,3.10
2022-12-03T09:00:01.205Z,3.20
2022-12-03T09:02:34.236Z,3.10
2022-12-03T09:05:16.849Z,3.20
2022-12-03T09:07:46.403Z,3.20
2022-12-03T09:15:42.228Z,3.20
2022-12-03T09:17:23.307Z,3.10
2022-12-03T09:20:01.433Z,3.10
2022-12-03T09:29:02.028Z,3.10
2022-12-03T09:38:50.374Z,3.20
2022-12-03T09:41:33.901Z,3.30
2022-12-03T09:44:04.952Z,3.30
2022-12-03T09:46:35.336Z,3.30
2022-12-03T09:49:03.957Z,3.30
2022-12-03T09:51:35.015Z,3.40
2022-12-03T09:54:07.206Z,3.40
2022-12-03T09:56:40.992Z,3.40
2022-12-03T10:03:16.765Z,3.40
2022-12-03T10:06:02.684Z,3.50
2022-12-03T10:08:55.828Z,3.50
2022-12-03T10:11:40.700Z,3.50
2022-12-03T10:14:08.881Z,3.50
2022-12-03T10:16:40.406Z,3.60
2022-12-03T10:19:17.903Z,3.60
2022-12-03T10:21:46.059Z,3.60
2022-12-03T10:24:26.466Z,3.60
2022-12-03T10:26:57.534Z,3.60
2022-12-03T10:29:33.179Z,3.60
2022-12-03T10:32:03.931Z,3.60
2022-12-03T10:34:33.876Z,3.60
2022-12-03T10:37:20.976Z,3.70
2022-12-03T10:40:00.110Z,3.80
2022-12-03T10:42:31.791Z,3.70
2022-12-03T10:45:15.345Z,3.70
2022-12-03T10:47:44.297Z,3.70
2022-12-03T10:50:20.729Z,3.70
2022-12-03T10:52:49.346Z,3.70
2022-12-03T10:55:17.728Z,3.70
2022-12-03T10:57:48.158Z,3.60
2022-12-03T11:00:20.956Z,3.50
2022-12-03T11:02:56.406Z,3.60
2022-12-03T11:05:28.130Z,3.60
2022-12-03T11:07:57.168Z,3.60
2022-12-03T11:10:25.778Z,3.70
2022-12-03T11:13:30.993Z,3.60
2022-12-03T11:15:59.686Z,3.50
2022-12-03T11:19:00.197Z,3.50
2022-12-03T11:21:28.381Z,3.50
2022-12-03T11:24:18.377Z,3.60
2022-12-03T11:27:26.096Z,3.50
2022-12-03T11:29:58.675Z,3.70
2022-12-03T11:33:08.703Z,3.60
2022-12-03T11:36:15.366Z,3.60
2022-12-03T11:39:01.363Z,3.50
2022-12-03T11:41:32.612Z,3.50
2022-12-03T11:44:04.365Z,3.50
2022-12-03T11:46:43.182Z,3.50
2022-12-03T11:49:31.572Z,3.40
2022-12-03T11:52:01.975Z,3.40
2022-12-03T11:54:34.587Z,3.40
2022-12-03T11:57:02.934Z,3.40
2022-12-03T11:59:30.970Z,3.40
2022-12-03T12:02:00.296Z,3.50
2022-12-03T12:04:33.774Z,3.50
2022-12-03T12:07:02.611Z,3.50
2022-12-03T12:09:50.580Z,3.40
2022-12-03T12:12:31.624Z,3.40
2022-12-03T12:15:00.386Z,3.50
2022-12-03T12:17:35.180Z,3.60
2022-12-03T12:20:15.453Z,3.50
2022-12-03T12:22:43.993Z,3.40
2022-12-03T12:25:37.141Z,3.40
2022-12-03T12:28:05.375Z,3.40
2022-12-03T12:30:33.528Z,3.50
2022-12-03T12:33:13.621Z,3.50
2022-12-03T12:35:42.510Z,3.40
2022-12-03T12:38:17.000Z,3.40
2022-12-03T12:40:49.232Z,3.40
2022-12-03T12:43:24.242Z,3.40
2022-12-03T12:45:55.085Z,3.30
2022-12-03T12:48:27.237Z,3.30
2022-12-03T12:51:01.126Z,3.20
2022-12-03T12:53:31.475Z,3.20
2022-12-03T12:56:10.985Z,3.30
2022-12-03T12:58:39.193Z,3.20
2022-12-03T13:01:12.316Z,3.30
2022-12-03T13:03:42.124Z,3.30
2022-12-03T13:06:16.216Z,3.40
2022-12-03T13:08:47.905Z,3.40
2022-12-03T13:11:32.111Z,3.30
2022-12-03T13:14:02.747Z,3.30
2022-12-03T13:16:33.436Z,3.30
2022-12-03T13:19:03.295Z,3.30
2022-12-03T13:21:38.336Z,3.30
2022-12-03T13:24:36.875Z,3.30
2022-12-03T13:27:23.040Z,3.30
2022-12-03T13:29:55.904Z,3.30
2022-12-03T13:32:30.819Z,3.40
2022-12-03T13:35:06.773Z,3.40
2022-12-03T13:37:35.099Z,3.50
2022-12-03T13:40:18.175Z,3.50
2022-12-03T13:42:46.640Z,3.50
2022-12-03T13:45:31.950Z,3.50
2022-12-03T13:48:21.193Z,3.40
2022-12-03T13:50:51.948Z,3.30
2022-12-03T13:53:36.913Z,3.30
2022-12-03T13:56:21.267Z,3.30
2022-12-03T13:58:49.275Z,3.30
2022-12-03T14:01:17.298Z,3.30
2022-12-03T14:03:45.379Z,3.40
2022-12-03T14:06:21.061Z,3.40
2022-12-03T14:08:49.233Z,3.40
2022-12-03T14:11:31.916Z,3.30
2022-12-03T14:14:00.766Z,3.30
2022-12-03T14:16:29.986Z,3.30
2022-12-03T14:18:58.985Z,3.30
2022-12-03T14:21:28.491Z,3.30
2022-12-03T14:23:56.635Z,3.20
2022-12-03T14:26:24.816Z,3.30
2022-12-03T14:28:54.478Z,3.30
2022-12-03T14:31:22.574Z,3.30
2022-12-03T14:33:50.716Z,3.20
2022-12-03T14:36:18.741Z,3.20
2022-12-03T14:38:48.267Z,3.20
2022-12-03T14:41:33.944Z,3.40
2022-12-03T14:44:01.970Z,3.20
2022-12-03T14:46:32.915Z,3.10
2022-12-03T14:49:01.107Z,3.10
2022-12-03T14:51:29.336Z,3.00
2022-12-03T14:53:58.727Z,3.10
2022-12-03T14:56:36.165Z,3.10
2022-12-03T14:59:04.122Z,3.20
2022-12-03T15:01:32.273Z,3.20
2022-12-03T15:04:00.452Z,3.10
2022-12-03T15:06:37.380Z,3.00
2022-12-03T15:09:06.962Z,3.00
2022-12-03T15:11:35.787Z,3.00
2022-12-03T15:14:04.571Z,3.00
2022-12-03T15:16:35.374Z,2.90
2022-12-03T15:19:04.685Z,2.90
2022-12-03T15:21:35.008Z,2.90
2022-12-03T15:24:03.369Z,2.80
2022-12-03T15:26:36.090Z,2.90
2022-12-03T15:29:04.618Z,3.00
2022-12-03T15:31:32.688Z,3.00
2022-12-03T15:34:03.318Z,3.00
2022-12-03T15:36:31.241Z,3.00
2022-12-03T15:38:59.255Z,3.00
2022-12-03T15:41:29.914Z,2.90
2022-12-03T15:44:01.548Z,2.90
2022-12-03T15:46:31.456Z,2.90
2022-12-03T15:49:00.466Z,2.80
2022-12-03T15:51:28.621Z,2.80
2022-12-03T15:53:56.636Z,2.80
2022-12-03T15:56:24.648Z,2.80
2022-12-03T15:58:53.536Z,2.80
2022-12-03T16:01:23.091Z,2.80
2022-12-03T16:03:51.446Z,2.80
2022-12-03T16:06:19.723Z,2.80
2022-12-03T16:08:48.246Z,2.80
2022-12-03T16:11:16.341Z,2.70
2022-12-03T16:13:44.284Z,2.80
2022-12-03T16:16:12.333Z,2.90
2022-12-03T16:18:41.830Z,2.90
2022-12-03T16:21:10.039Z,2.80
2022-12-03T16:23:38.013Z,2.80
2022-12-03T16:26:06.236Z,2.80
2022-12-03T16:28:34.219Z,2.80
2022-12-03T16:31:02.241Z,2.80
2022-12-03T16:33:30.309Z,2.70
2022-12-03T16:35:59.714Z,2.70
2022-12-03T16:38:28.042Z,2.60
2022-12-03T16:40:55.981Z,2.70
2022-12-03T16:43:23.932Z,2.80
2022-12-03T16:46:02.346Z,2.70
2022-12-03T16:48:30.913Z,2.80
2022-12-03T16:51:00.278Z,2.80
2022-12-03T16:53:28.288Z,2.70
2022-12-03T16:55:56.251Z,2.70
2022-12-03T16:58:24.260Z,2.70
2022-12-03T17:00:54.293Z,2.70
2022-12-03T17:03:23.025Z,2.70
2022-12-03T17:05:51.123Z,2.80
2022-12-03T17:08:20.424Z,2.80
2022-12-03T17:10:48.575Z,2.90
2022-12-03T17:13:16.995Z,2.80
2022-12-03T17:15:45.145Z,2.80
2022-12-03T17:18:13.134Z,2.80
2022-12-03T17:20:41.248Z,2.80
2022-12-03T17:23:09.273Z,2.90
2022-12-03T17:25:38.576Z,2.80
2022-12-03T17:28:06.694Z,2.80
2022-12-03T17:30:34.659Z,2.80
2022-12-03T17:33:02.548Z,2.80
2022-12-03T17:35:30.583Z,2.80
2022-12-03T17:37:58.515Z,2.80
2022-12-03T17:40:26.510Z,2.80
2022-12-03T17:42:55.875Z,2.80
2022-12-03T17:45:23.829Z,2.80
2022-12-03T17:47:51.744Z,3.00
2022-12-03T17:50:19.846Z,2.90
2022-12-03T17:52:47.828Z,2.80
2022-12-03T17:55:26.197Z,2.90
2022-12-03T17:57:57.358Z,2.80
2022-12-03T18:00:25.355Z,2.80
2022-12-03T18:02:53.548Z,2.80
2022-12-03T18:05:23.115Z,2.80
2022-12-03T18:07:51.424Z,2.80
2022-12-03T18:10:19.574Z,2.80
2022-12-03T18:12:47.603Z,2.80
2022-12-03T18:15:17.059Z,2.70
2022-12-03T18:17:44.969Z,2.70
2022-12-03T18:20:13.188Z,2.70
2022-12-03T18:22:41.321Z,2.70
2022-12-03T18:25:10.052Z,2.70
2022-12-03T18:27:38.077Z,2.70
2022-12-03T18:30:07.455Z,2.70
2022-12-03T18:32:39.865Z,2.70
2022-12-03T18:35:08.342Z,2.70
2022-12-03T18:37:36.599Z,2.70
2022-12-03T18:45:29.813Z,2.60
2022-12-03T18:47:59.743Z,2.50
2022-12-03T18:50:28.063Z,2.50
2022-12-03T18:52:56.154Z,2.50
2022-12-03T18:55:25.316Z,2.60
2022-12-03T18:57:53.486Z,2.60
2022-12-03T19:00:24.677Z,2.60
2022-12-03T19:03:08.410Z,2.60
2022-12-03T19:05:38.094Z,2.70
2022-12-03T19:08:14.231Z,2.70
2022-12-03T19:10:43.164Z,2.70
2022-12-03T19:13:11.780Z,2.80
2022-12-03T19:15:40.261Z,2.70
2022-12-03T19:18:08.357Z,2.70
2022-12-03T19:20:41.492Z,2.70
2022-12-03T19:23:09.858Z,2.90
2022-12-03T19:25:38.091Z,2.80
2022-12-03T19:28:06.440Z,2.80
2022-12-03T19:30:34.824Z,2.80
2022-12-03T19:33:03.029Z,2.80
2022-12-03T19:35:32.303Z,2.80
2022-12-03T19:38:01.950Z,2.90
2022-12-03T19:40:32.307Z,3.00
2022-12-03T19:43:00.505Z,2.70
2022-12-03T19:45:28.613Z,2.80
2022-12-03T19:47:56.739Z,2.70
2022-12-03T19:50:25.056Z,2.90
2022-12-03T19:52:53.213Z,2.80
2022-12-03T19:55:23.063Z,3.00
2022-12-03T19:57:51.265Z,2.80
2022-12-03T20:00:20.269Z,2.90
2022-12-03T20:02:50.746Z,2.90
2022-12-03T20:05:19.006Z,2.40
2022-12-03T20:07:47.204Z,2.90
2022-12-03T20:10:15.540Z,2.90
2022-12-03T20:12:47.343Z,2.90
2022-12-03T20:15:15.446Z,3.00
2022-12-03T20:17:43.606Z,2.90
2022-12-03T20:20:12.417Z,2.90
2022-12-03T20:22:40.532Z,2.90
2022-12-03T20:25:09.341Z,2.90
2022-12-03T20:27:37.736Z,2.90
2022-12-03T20:30:08.598Z,2.90
2022-12-03T20:32:41.996Z,2.90
2022-12-03T20:35:13.203Z,3.00
2022-12-03T20:37:42.668Z,3.30
2022-12-03T20:40:11.485Z,2.90
2022-12-03T20:42:39.568Z,2.90
2022-12-03T20:45:10.537Z,2.90
2022-12-03T20:47:38.633Z,2.90
2022-12-03T20:50:08.112Z,2.80
2022-12-03T20:52:36.379Z,2.90
2022-12-03T20:55:04.551Z,2.90
2022-12-03T20:57:32.624Z,2.90
2022-12-03T21:00:00.712Z,3.00
2022-12-03T21:02:30.223Z,3.00
2022-12-03T21:04:58.717Z,3.00
2022-12-03T21:07:29.944Z,3.00
2022-12-03T21:09:58.179Z,3.20
2022-12-03T21:12:26.375Z,3.00
2022-12-03T21:14:56.825Z,3.00
2022-12-03T21:17:25.219Z,3.00
2022-12-03T21:19:56.700Z,3.00
2022-12-03T21:22:25.209Z,3.90
2022-12-03T21:25:00.543Z,3.10
2022-12-03T21:27:30.251Z,3.10
2022-12-03T21:29:58.393Z,3.10
2022-12-03T21:32:26.455Z,3.60
2022-12-03T21:34:55.850Z,4.20
2022-12-03T21:37:23.879Z,3.30
2022-12-03T21:39:52.085Z,3.00
2022-12-03T21:42:35.906Z,3.00
2022-12-03T21:45:06.258Z,3.10
2022-12-03T21:47:37.291Z,3.00
2022-12-03T21:50:11.089Z,3.20
2022-12-03T21:52:39.368Z,3.00
2022-12-03T21:55:08.115Z,3.10
2022-12-03T21:57:37.483Z,3.00
2022-12-03T22:00:07.854Z,3.00
2022-12-03T22:02:36.125Z,3.10
2022-12-03T22:05:04.360Z,3.10
2022-12-03T22:07:35.781Z,3.10
2022-12-03T22:10:03.937Z,3.20
2022-12-03T22:12:32.613Z,3.10
2022-12-03T22:15:00.704Z,3.10
2022-12-03T22:17:29.014Z,3.20
2022-12-03T22:19:57.202Z,3.20
2022-12-03T22:22:25.492Z,3.20
2022-12-03T22:24:54.908Z,3.20
2022-12-03T22:27:22.983Z,3.20
2022-12-03T22:29:51.248Z,3.30
2022-12-03T22:32:19.667Z,3.20
2022-12-03T22:34:47.857Z,3.20
2022-12-03T22:37:16.104Z,3.10
2022-12-03T22:39:44.291Z,3.10
2022-12-03T22:42:13.951Z,3.10
2022-12-03T22:44:41.933Z,3.10
2022-12-03T22:47:10.487Z,3.10
2022-12-03T22:49:38.600Z,3.10
2022-12-03T22:52:06.793Z,3.10
2022-12-03T22:54:35.080Z,3.10
2022-12-03T22:57:03.550Z,3.10
2022-12-03T22:59:32.981Z,3.10
2022-12-03T23:02:01.518Z,3.10
2022-12-03T23:04:31.003Z,3.10
2022-12-03T23:06:59.316Z,3.30
2022-12-03T23:09:27.687Z,3.00
2022-12-03T23:11:55.905Z,3.60
2022-12-03T23:14:24.298Z,3.60
2022-12-03T23:16:53.902Z,3.10
2022-12-03T23:19:22.623Z,3.10
2022-12-03T23:21:51.234Z,3.20
2022-12-03T23:24:19.316Z,3.30
2022-12-03T23:26:47.442Z,3.30
2022-12-03T23:29:15.608Z,3.30
2022-12-03T23:31:44.057Z,3.30
2022-12-03T23:34:13.895Z,3.30
2022-12-03T23:36:42.037Z,3.40
2022-12-03T23:39:10.223Z,3.40
2022-12-03T23:41:38.418Z,3.50
2022-12-03T23:44:07.035Z,3.40
2022-12-03T23:46:35.373Z,3.40
2022-12-03T23:49:03.630Z,3.60
2022-12-03T23:51:33.117Z,3.40
2022-12-03T23:54:01.091Z,3.40
2022-12-03T23:56:30.912Z,3.40
2022-12-03T23:58:59.644Z,3.40
